sensor_id;sensor_type;location;lat;lon;timestamp;P1;durP1;ratioP1;P2;durP2;ratioP2
28531;SDS011;15738;44.860;10.066;2022-07-29T00:02:30;5.85;;;3.80;;
28531;SDS011;15738;44.860;10.066;2022-07-29T00:05:20;10.48;;;4.00;;
28531;SDS011;15738;44.860;10.066;2022-07-29T00:08:08;5.88;;;3.28;;
28531;SDS011;15738;44.860;10.066;2022-07-29T00:10:57;6.68;;;3.53;;
28531;SDS011;15738;44.860;10.066;2022-07-29T00:13:43;10.77;;;3.85;;
28531;SDS011;15738;44.860;10.066;2022-07-29T00:19:21;7.50;;;3.92;;
28531;SDS011;15738;44.860;10.066;2022-07-29T00:22:08;8.52;;;3.35;;
28531;SDS011;15738;44.860;10.066;2022-07-29T00:24:57;7.72;;;3.75;;
28531;SDS011;15738;44.860;10.066;2022-07-29T00:27:43;8.70;;;3.30;;
28531;SDS011;15738;44.860;10.066;2022-07-29T00:30:30;8.65;;;4.00;;
28531;SDS011;15738;44.860;10.066;2022-07-29T00:33:17;9.70;;;4.20;;
28531;SDS011;15738;44.860;10.066;2022-07-29T00:36:04;11.77;;;4.28;;
28531;SDS011;15738;44.860;10.066;2022-07-29T00:38:51;10.93;;;4.85;;
28531;SDS011;15738;44.860;10.066;2022-07-29T00:41:39;11.02;;;4.55;;
28531;SDS011;15738;44.860;10.066;2022-07-29T00:44:26;14.88;;;4.68;;
28531;SDS011;15738;44.860;10.066;2022-07-29T00:47:12;10.80;;;4.43;;
28531;SDS011;15738;44.860;10.066;2022-07-29T00:50:00;12.15;;;4.30;;
28531;SDS011;15738;44.860;10.066;2022-07-29T00:52:49;10.85;;;4.50;;
28531;SDS011;15738;44.860;10.066;2022-07-29T00:55:38;12.32;;;4.65;;
28531;SDS011;15738;44.860;10.066;2022-07-29T00:58:27;12.30;;;4.43;;
28531;SDS011;15738;44.860;10.066;2022-07-29T01:01:17;5.70;;;3.72;;
28531;SDS011;15738;44.860;10.066;2022-07-29T01:04:05;16.88;;;4.60;;
28531;SDS011;15738;44.860;10.066;2022-07-29T01:06:56;10.73;;;4.47;;
28531;SDS011;15738;44.860;10.066;2022-07-29T01:09:44;9.52;;;4.35;;
28531;SDS011;15738;44.860;10.066;2022-07-29T01:12:31;11.20;;;4.05;;
28531;SDS011;15738;44.860;10.066;2022-07-29T01:15:19;6.40;;;3.40;;
28531;SDS011;15738;44.860;10.066;2022-07-29T01:30:56;6.40;;;2.80;;
28531;SDS011;15738;44.860;10.066;2022-07-29T01:33:45;6.50;;;3.38;;
28531;SDS011;15738;44.860;10.066;2022-07-29T01:36:40;8.90;;;4.00;;
28531;SDS011;15738;44.860;10.066;2022-07-29T01:39:31;5.15;;;3.10;;
28531;SDS011;15738;44.860;10.066;2022-07-29T01:42:23;14.50;;;4.78;;
28531;SDS011;15738;44.860;10.066;2022-07-29T01:45:39;8.35;;;3.90;;
28531;SDS011;15738;44.860;10.066;2022-07-29T01:48:29;7.40;;;3.78;;
28531;SDS011;15738;44.860;10.066;2022-07-29T01:51:48;5.43;;;3.65;;
28531;SDS011;15738;44.860;10.066;2022-07-29T01:54:42;8.43;;;3.67;;
28531;SDS011;15738;44.860;10.066;2022-07-29T01:57:33;8.38;;;3.33;;
28531;SDS011;15738;44.860;10.066;2022-07-29T02:00:21;8.73;;;3.30;;
28531;SDS011;15738;44.860;10.066;2022-07-29T02:03:11;5.18;;;3.50;;
28531;SDS011;15738;44.860;10.066;2022-07-29T02:05:58;13.10;;;4.45;;
28531;SDS011;15738;44.860;10.066;2022-07-29T02:08:49;5.85;;;3.28;;
28531;SDS011;15738;44.860;10.066;2022-07-29T02:11:38;6.32;;;3.53;;
28531;SDS011;15738;44.860;10.066;2022-07-29T02:14:30;10.43;;;3.45;;
28531;SDS011;15738;44.860;10.066;2022-07-29T02:17:26;6.50;;;3.75;;
28531;SDS011;15738;44.860;10.066;2022-07-29T02:20:22;4.35;;;3.50;;
28531;SDS011;15738;44.860;10.066;2022-07-29T02:23:12;7.75;;;3.70;;
28531;SDS011;15738;44.860;10.066;2022-07-29T02:26:07;4.60;;;3.00;;
28531;SDS011;15738;44.860;10.066;2022-07-29T02:28:54;9.55;;;3.13;;
28531;SDS011;15738;44.860;10.066;2022-07-29T02:31:43;11.55;;;5.07;;
28531;SDS011;15738;44.860;10.066;2022-07-29T02:34:32;13.85;;;4.78;;
28531;SDS011;15738;44.860;10.066;2022-07-29T02:37:21;13.23;;;5.53;;
28531;SDS011;15738;44.860;10.066;2022-07-29T02:40:12;8.48;;;4.80;;
28531;SDS011;15738;44.860;10.066;2022-07-29T02:43:02;8.05;;;5.10;;
28531;SDS011;15738;44.860;10.066;2022-07-29T02:45:56;12.85;;;6.35;;
28531;SDS011;15738;44.860;10.066;2022-07-29T02:48:58;11.98;;;5.82;;
28531;SDS011;15738;44.860;10.066;2022-07-29T02:51:52;15.00;;;7.75;;
28531;SDS011;15738;44.860;10.066;2022-07-29T02:54:56;15.57;;;9.05;;
28531;SDS011;15738;44.860;10.066;2022-07-29T03:00:41;15.48;;;10.68;;
28531;SDS011;15738;44.860;10.066;2022-07-29T03:03:34;17.65;;;11.00;;
28531;SDS011;15738;44.860;10.066;2022-07-29T03:06:23;18.75;;;12.63;;
28531;SDS011;15738;44.860;10.066;2022-07-29T03:09:22;16.83;;;12.27;;
28531;SDS011;15738;44.860;10.066;2022-07-29T03:12:12;30.65;;;12.68;;
28531;SDS011;15738;44.860;10.066;2022-07-29T03:15:01;21.38;;;13.07;;
28531;SDS011;15738;44.860;10.066;2022-07-29T03:17:47;21.23;;;12.68;;
28531;SDS011;15738;44.860;10.066;2022-07-29T03:20:34;16.90;;;12.25;;
28531;SDS011;15738;44.860;10.066;2022-07-29T03:23:21;17.25;;;11.93;;
28531;SDS011;15738;44.860;10.066;2022-07-29T03:26:10;20.60;;;12.45;;
28531;SDS011;15738;44.860;10.066;2022-07-29T03:28:57;20.10;;;11.98;;
28531;SDS011;15738;44.860;10.066;2022-07-29T03:31:48;18.52;;;10.90;;
28531;SDS011;15738;44.860;10.066;2022-07-29T03:34:35;16.08;;;10.45;;
28531;SDS011;15738;44.860;10.066;2022-07-29T03:37:22;21.90;;;9.82;;
28531;SDS011;15738;44.860;10.066;2022-07-29T03:40:09;17.50;;;8.93;;
28531;SDS011;15738;44.860;10.066;2022-07-29T03:43:04;13.50;;;9.52;;
28531;SDS011;15738;44.860;10.066;2022-07-29T03:45:55;16.90;;;10.23;;
28531;SDS011;15738;44.860;10.066;2022-07-29T03:48:46;18.08;;;10.15;;
28531;SDS011;15738;44.860;10.066;2022-07-29T03:51:37;19.00;;;12.32;;
28531;SDS011;15738;44.860;10.066;2022-07-29T03:54:25;23.95;;;14.43;;
28531;SDS011;15738;44.860;10.066;2022-07-29T03:57:11;24.63;;;15.40;;
28531;SDS011;15738;44.860;10.066;2022-07-29T04:00:00;22.75;;;16.02;;
28531;SDS011;15738;44.860;10.066;2022-07-29T04:02:50;24.05;;;15.88;;
28531;SDS011;15738;44.860;10.066;2022-07-29T04:05:37;26.75;;;16.67;;
28531;SDS011;15738;44.860;10.066;2022-07-29T04:08:24;22.50;;;15.48;;
28531;SDS011;15738;44.860;10.066;2022-07-29T04:11:12;22.85;;;16.25;;
28531;SDS011;15738;44.860;10.066;2022-07-29T04:13:59;25.50;;;14.88;;
28531;SDS011;15738;44.860;10.066;2022-07-29T04:16:46;21.73;;;14.43;;
28531;SDS011;15738;44.860;10.066;2022-07-29T04:19:32;19.67;;;14.05;;
28531;SDS011;15738;44.860;10.066;2022-07-29T04:22:19;26.17;;;14.25;;
28531;SDS011;15738;44.860;10.066;2022-07-29T04:25:06;22.95;;;14.55;;
28531;SDS011;15738;44.860;10.066;2022-07-29T04:27:55;20.45;;;14.10;;
28531;SDS011;15738;44.860;10.066;2022-07-29T04:30:51;23.20;;;14.05;;
28531;SDS011;15738;44.860;10.066;2022-07-29T04:33:37;22.90;;;14.25;;
28531;SDS011;15738;44.860;10.066;2022-07-29T04:36:23;24.92;;;15.52;;
28531;SDS011;15738;44.860;10.066;2022-07-29T04:39:13;24.42;;;16.35;;
28531;SDS011;15738;44.860;10.066;2022-07-29T04:42:07;26.98;;;16.27;;
28531;SDS011;15738;44.860;10.066;2022-07-29T04:44:54;26.40;;;16.48;;
28531;SDS011;15738;44.860;10.066;2022-07-29T04:47:46;31.08;;;16.92;;
28531;SDS011;15738;44.860;10.066;2022-07-29T04:50:33;27.95;;;17.65;;
28531;SDS011;15738;44.860;10.066;2022-07-29T04:53:19;24.23;;;16.55;;
28531;SDS011;15738;44.860;10.066;2022-07-29T04:56:06;30.67;;;17.58;;
28531;SDS011;15738;44.860;10.066;2022-07-29T04:58:53;26.75;;;17.58;;
28531;SDS011;15738;44.860;10.066;2022-07-29T05:01:39;26.45;;;18.15;;
28531;SDS011;15738;44.860;10.066;2022-07-29T05:04:26;23.52;;;17.55;;
28531;SDS011;15738;44.860;10.066;2022-07-29T05:07:12;30.45;;;17.25;;
28531;SDS011;15738;44.860;10.066;2022-07-29T05:10:01;24.02;;;16.90;;
28531;SDS011;15738;44.860;10.066;2022-07-29T05:12:49;24.33;;;16.27;;
28531;SDS011;15738;44.860;10.066;2022-07-29T05:15:37;26.33;;;16.52;;
28531;SDS011;15738;44.860;10.066;2022-07-29T05:18:25;28.35;;;16.05;;
28531;SDS011;15738;44.860;10.066;2022-07-29T05:21:11;22.13;;;14.68;;
28531;SDS011;15738;44.860;10.066;2022-07-29T05:23:58;26.65;;;15.52;;
28531;SDS011;15738;44.860;10.066;2022-07-29T05:26:43;24.95;;;16.92;;
28531;SDS011;15738;44.860;10.066;2022-07-29T05:29:32;21.88;;;14.20;;
28531;SDS011;15738;44.860;10.066;2022-07-29T05:32:27;27.08;;;16.38;;
28531;SDS011;15738;44.860;10.066;2022-07-29T05:35:13;21.17;;;15.65;;
28531;SDS011;15738;44.860;10.066;2022-07-29T05:38:00;24.23;;;15.55;;
28531;SDS011;15738;44.860;10.066;2022-07-29T05:40:47;25.02;;;16.08;;
28531;SDS011;15738;44.860;10.066;2022-07-29T05:43:33;28.42;;;16.50;;
28531;SDS011;15738;44.860;10.066;2022-07-29T05:46:19;26.88;;;15.95;;
28531;SDS011;15738;44.860;10.066;2022-07-29T05:49:05;27.00;;;16.88;;
28531;SDS011;15738;44.860;10.066;2022-07-29T05:51:53;29.48;;;16.17;;
28531;SDS011;15738;44.860;10.066;2022-07-29T05:54:39;22.83;;;16.02;;
28531;SDS011;15738;44.860;10.066;2022-07-29T05:57:26;25.48;;;14.70;;
28531;SDS011;15738;44.860;10.066;2022-07-29T06:00:11;23.42;;;15.90;;
28531;SDS011;15738;44.860;10.066;2022-07-29T06:02:58;30.35;;;17.15;;
28531;SDS011;15738;44.860;10.066;2022-07-29T06:05:45;29.15;;;15.93;;
28531;SDS011;15738;44.860;10.066;2022-07-29T06:08:34;25.67;;;16.20;;
28531;SDS011;15738;44.860;10.066;2022-07-29T06:11:21;27.13;;;18.10;;
28531;SDS011;15738;44.860;10.066;2022-07-29T06:14:09;33.88;;;17.88;;
28531;SDS011;15738;44.860;10.066;2022-07-29T06:16:56;31.33;;;13.80;;
28531;SDS011;15738;44.860;10.066;2022-07-29T06:19:43;25.92;;;17.15;;
28531;SDS011;15738;44.860;10.066;2022-07-29T06:22:31;28.85;;;16.95;;
28531;SDS011;15738;44.860;10.066;2022-07-29T06:25:19;29.48;;;17.83;;
28531;SDS011;15738;44.860;10.066;2022-07-29T06:28:06;26.30;;;13.23;;
28531;SDS011;15738;44.860;10.066;2022-07-29T06:30:52;25.58;;;14.15;;
28531;SDS011;15738;44.860;10.066;2022-07-29T06:33:38;25.67;;;14.77;;
28531;SDS011;15738;44.860;10.066;2022-07-29T06:36:24;18.35;;;13.00;;
28531;SDS011;15738;44.860;10.066;2022-07-29T06:39:12;20.05;;;13.90;;
28531;SDS011;15738;44.860;10.066;2022-07-29T06:42:00;19.10;;;13.07;;
28531;SDS011;15738;44.860;10.066;2022-07-29T06:44:49;22.30;;;13.25;;
28531;SDS011;15738;44.860;10.066;2022-07-29T06:47:35;27.92;;;14.27;;
28531;SDS011;15738;44.860;10.066;2022-07-29T06:50:22;24.23;;;13.77;;
28531;SDS011;15738;44.860;10.066;2022-07-29T06:53:08;19.38;;;12.25;;
28531;SDS011;15738;44.860;10.066;2022-07-29T06:55:56;24.70;;;13.65;;
28531;SDS011;15738;44.860;10.066;2022-07-29T06:58:44;18.95;;;11.30;;
28531;SDS011;15738;44.860;10.066;2022-07-29T07:01:31;22.83;;;13.02;;
28531;SDS011;15738;44.860;10.066;2022-07-29T07:04:19;21.38;;;11.98;;
28531;SDS011;15738;44.860;10.066;2022-07-29T07:07:05;22.77;;;12.80;;
28531;SDS011;15738;44.860;10.066;2022-07-29T07:09:53;18.25;;;11.52;;
28531;SDS011;15738;44.860;10.066;2022-07-29T07:12:39;24.17;;;12.93;;
28531;SDS011;15738;44.860;10.066;2022-07-29T07:15:25;21.45;;;13.70;;
28531;SDS011;15738;44.860;10.066;2022-07-29T07:18:24;19.00;;;11.30;;
28531;SDS011;15738;44.860;10.066;2022-07-29T07:21:10;24.42;;;11.00;;
28531;SDS011;15738;44.860;10.066;2022-07-29T07:26:50;18.38;;;10.23;;
28531;SDS011;15738;44.860;10.066;2022-07-29T07:29:37;16.38;;;10.02;;
28531;SDS011;15738;44.860;10.066;2022-07-29T07:32:29;19.60;;;8.15;;
28531;SDS011;15738;44.860;10.066;2022-07-29T07:35:17;23.30;;;9.07;;
28531;SDS011;15738;44.860;10.066;2022-07-29T07:38:04;15.13;;;6.90;;
28531;SDS011;15738;44.860;10.066;2022-07-29T07:40:55;15.35;;;8.15;;
28531;SDS011;15738;44.860;10.066;2022-07-29T07:43:42;14.65;;;10.05;;
28531;SDS011;15738;44.860;10.066;2022-07-29T07:46:36;18.50;;;11.02;;
28531;SDS011;15738;44.860;10.066;2022-07-29T07:49:29;13.38;;;9.23;;
28531;SDS011;15738;44.860;10.066;2022-07-29T07:52:21;21.25;;;8.85;;
28531;SDS011;15738;44.860;10.066;2022-07-29T07:58:47;16.15;;;9.75;;
28531;SDS011;15738;44.860;10.066;2022-07-29T08:01:35;16.77;;;9.73;;
28531;SDS011;15738;44.860;10.066;2022-07-29T08:04:41;14.52;;;8.15;;
28531;SDS011;15738;44.860;10.066;2022-07-29T08:07:28;10.43;;;7.22;;
28531;SDS011;15738;44.860;10.066;2022-07-29T08:10:15;16.38;;;8.75;;
28531;SDS011;15738;44.860;10.066;2022-07-29T08:13:23;17.50;;;9.70;;
28531;SDS011;15738;44.860;10.066;2022-07-29T08:19:41;16.40;;;8.30;;
28531;SDS011;15738;44.860;10.066;2022-07-29T08:22:31;33.28;;;6.65;;
28531;SDS011;15738;44.860;10.066;2022-07-29T08:25:22;19.47;;;9.83;;
28531;SDS011;15738;44.860;10.066;2022-07-29T08:28:11;19.85;;;7.45;;
28531;SDS011;15738;44.860;10.066;2022-07-29T08:30:57;30.60;;;6.93;;
28531;SDS011;15738;44.860;10.066;2022-07-29T08:37:22;14.50;;;8.32;;
28531;SDS011;15738;44.860;10.066;2022-07-29T08:40:09;12.48;;;9.15;;
28531;SDS011;15738;44.860;10.066;2022-07-29T08:46:09;8.18;;;5.55;;
28531;SDS011;15738;44.860;10.066;2022-07-29T08:48:58;15.30;;;8.45;;
28531;SDS011;15738;44.860;10.066;2022-07-29T08:51:45;17.35;;;11.05;;
28531;SDS011;15738;44.860;10.066;2022-07-29T08:54:38;13.70;;;9.80;;
28531;SDS011;15738;44.860;10.066;2022-07-29T08:57:28;13.02;;;8.18;;
28531;SDS011;15738;44.860;10.066;2022-07-29T09:00:17;20.30;;;10.95;;
28531;SDS011;15738;44.860;10.066;2022-07-29T09:03:04;16.83;;;7.35;;
28531;SDS011;15738;44.860;10.066;2022-07-29T09:05:51;15.52;;;9.13;;
28531;SDS011;15738;44.860;10.066;2022-07-29T09:08:39;14.02;;;8.88;;
28531;SDS011;15738;44.860;10.066;2022-07-29T09:11:28;17.70;;;9.73;;
28531;SDS011;15738;44.860;10.066;2022-07-29T09:14:14;12.68;;;6.20;;
28531;SDS011;15738;44.860;10.066;2022-07-29T09:17:01;15.95;;;8.85;;
28531;SDS011;15738;44.860;10.066;2022-07-29T09:19:48;9.00;;;6.35;;
28531;SDS011;15738;44.860;10.066;2022-07-29T09:22:37;10.77;;;7.38;;
28531;SDS011;15738;44.860;10.066;2022-07-29T09:25:32;13.05;;;4.47;;
28531;SDS011;15738;44.860;10.066;2022-07-29T09:31:06;14.32;;;6.50;;
28531;SDS011;15738;44.860;10.066;2022-07-29T09:33:57;18.92;;;5.45;;
28531;SDS011;15738;44.860;10.066;2022-07-29T09:36:47;11.73;;;6.78;;
28531;SDS011;15738;44.860;10.066;2022-07-29T09:39:38;11.00;;;6.35;;
28531;SDS011;15738;44.860;10.066;2022-07-29T09:42:31;12.10;;;7.35;;
28531;SDS011;15738;44.860;10.066;2022-07-29T09:45:29;9.63;;;5.75;;
28531;SDS011;15738;44.860;10.066;2022-07-29T09:48:18;13.43;;;7.20;;
28531;SDS011;15738;44.860;10.066;2022-07-29T09:51:18;8.57;;;6.05;;
28531;SDS011;15738;44.860;10.066;2022-07-29T09:54:23;9.13;;;5.65;;
28531;SDS011;15738;44.860;10.066;2022-07-29T09:57:22;10.95;;;5.82;;
28531;SDS011;15738;44.860;10.066;2022-07-29T10:00:16;9.13;;;6.18;;
28531;SDS011;15738;44.860;10.066;2022-07-29T10:03:05;9.52;;;7.68;;
28531;SDS011;15738;44.860;10.066;2022-07-29T10:09:10;15.13;;;8.45;;
28531;SDS011;15738;44.860;10.066;2022-07-29T10:12:10;13.27;;;6.10;;
28531;SDS011;15738;44.860;10.066;2022-07-29T10:15:01;14.35;;;5.75;;
28531;SDS011;15738;44.860;10.066;2022-07-29T10:17:47;9.43;;;4.72;;
28531;SDS011;15738;44.860;10.066;2022-07-29T10:20:36;16.48;;;6.68;;
28531;SDS011;15738;44.860;10.066;2022-07-29T10:23:23;10.07;;;6.10;;
28531;SDS011;15738;44.860;10.066;2022-07-29T10:26:09;26.42;;;6.45;;
28531;SDS011;15738;44.860;10.066;2022-07-29T10:29:07;13.02;;;7.68;;
28531;SDS011;15738;44.860;10.066;2022-07-29T10:38:45;8.80;;;5.78;;
28531;SDS011;15738;44.860;10.066;2022-07-29T10:41:53;10.68;;;5.90;;
28531;SDS011;15738;44.860;10.066;2022-07-29T10:44:53;10.35;;;6.32;;
28531;SDS011;15738;44.860;10.066;2022-07-29T10:47:40;13.35;;;5.88;;
28531;SDS011;15738;44.860;10.066;2022-07-29T10:50:27;8.63;;;4.70;;
28531;SDS011;15738;44.860;10.066;2022-07-29T10:53:46;7.95;;;4.18;;
28531;SDS011;15738;44.860;10.066;2022-07-29T10:56:35;6.22;;;3.55;;
28531;SDS011;15738;44.860;10.066;2022-07-29T10:59:22;8.88;;;4.15;;
28531;SDS011;15738;44.860;10.066;2022-07-29T11:02:40;8.15;;;4.32;;
28531;SDS011;15738;44.860;10.066;2022-07-29T11:05:27;27.30;;;3.70;;
28531;SDS011;15738;44.860;10.066;2022-07-29T11:08:26;8.88;;;5.07;;
28531;SDS011;15738;44.860;10.066;2022-07-29T11:14:13;10.63;;;5.05;;
28531;SDS011;15738;44.860;10.066;2022-07-29T11:19:50;10.52;;;3.83;;
28531;SDS011;15738;44.860;10.066;2022-07-29T11:22:41;8.88;;;5.35;;
28531;SDS011;15738;44.860;10.066;2022-07-29T11:25:32;8.27;;;4.25;;
28531;SDS011;15738;44.860;10.066;2022-07-29T11:31:43;5.75;;;4.40;;
28531;SDS011;15738;44.860;10.066;2022-07-29T11:34:32;6.25;;;3.63;;
28531;SDS011;15738;44.860;10.066;2022-07-29T11:37:19;10.95;;;5.13;;
28531;SDS011;15738;44.860;10.066;2022-07-29T11:40:15;10.68;;;4.93;;
28531;SDS011;15738;44.860;10.066;2022-07-29T11:43:03;8.82;;;4.68;;
28531;SDS011;15738;44.860;10.066;2022-07-29T11:45:51;7.40;;;4.22;;
28531;SDS011;15738;44.860;10.066;2022-07-29T11:48:42;9.88;;;5.50;;
28531;SDS011;15738;44.860;10.066;2022-07-29T11:51:30;11.90;;;5.18;;
28531;SDS011;15738;44.860;10.066;2022-07-29T11:54:21;12.23;;;4.80;;
28531;SDS011;15738;44.860;10.066;2022-07-29T11:57:14;8.52;;;4.68;;
28531;SDS011;15738;44.860;10.066;2022-07-29T12:00:05;9.10;;;5.05;;
28531;SDS011;15738;44.860;10.066;2022-07-29T12:02:59;17.27;;;5.25;;
28531;SDS011;15738;44.860;10.066;2022-07-29T12:05:52;7.32;;;4.32;;
28531;SDS011;15738;44.860;10.066;2022-07-29T12:08:41;9.30;;;4.13;;
28531;SDS011;15738;44.860;10.066;2022-07-29T12:11:29;7.95;;;4.22;;
28531;SDS011;15738;44.860;10.066;2022-07-29T12:14:32;8.15;;;3.97;;
28531;SDS011;15738;44.860;10.066;2022-07-29T12:17:28;7.15;;;3.95;;
28531;SDS011;15738;44.860;10.066;2022-07-29T12:20:22;8.82;;;3.97;;
28531;SDS011;15738;44.860;10.066;2022-07-29T12:23:13;7.80;;;3.87;;
28531;SDS011;15738;44.860;10.066;2022-07-29T12:26:04;7.53;;;3.72;;
28531;SDS011;15738;44.860;10.066;2022-07-29T12:28:56;8.25;;;4.20;;
28531;SDS011;15738;44.860;10.066;2022-07-29T12:31:50;8.80;;;3.47;;
28531;SDS011;15738;44.860;10.066;2022-07-29T12:34:42;5.55;;;3.15;;
28531;SDS011;15738;44.860;10.066;2022-07-29T12:37:30;5.43;;;2.88;;
28531;SDS011;15738;44.860;10.066;2022-07-29T12:40:26;7.72;;;3.60;;
28531;SDS011;15738;44.860;10.066;2022-07-29T12:43:16;10.05;;;4.22;;
28531;SDS011;15738;44.860;10.066;2022-07-29T12:46:13;11.75;;;4.13;;
28531;SDS011;15738;44.860;10.066;2022-07-29T12:49:00;15.25;;;4.10;;
28531;SDS011;15738;44.860;10.066;2022-07-29T12:51:48;9.35;;;3.67;;
28531;SDS011;15738;44.860;10.066;2022-07-29T12:54:35;16.98;;;3.90;;
28531;SDS011;15738;44.860;10.066;2022-07-29T12:57:21;4.72;;;3.58;;
28531;SDS011;15738;44.860;10.066;2022-07-29T13:00:09;8.15;;;4.03;;
28531;SDS011;15738;44.860;10.066;2022-07-29T13:02:59;6.50;;;3.83;;
28531;SDS011;15738;44.860;10.066;2022-07-29T13:05:51;7.07;;;3.60;;
28531;SDS011;15738;44.860;10.066;2022-07-29T13:08:39;7.82;;;3.80;;
28531;SDS011;15738;44.860;10.066;2022-07-29T13:11:51;10.05;;;4.25;;
28531;SDS011;15738;44.860;10.066;2022-07-29T13:14:42;10.82;;;4.85;;
28531;SDS011;15738;44.860;10.066;2022-07-29T13:17:31;11.68;;;6.13;;
28531;SDS011;15738;44.860;10.066;2022-07-29T13:20:27;20.13;;;6.00;;
28531;SDS011;15738;44.860;10.066;2022-07-29T13:23:15;15.07;;;7.55;;
28531;SDS011;15738;44.860;10.066;2022-07-29T13:26:08;23.25;;;7.93;;
28531;SDS011;15738;44.860;10.066;2022-07-29T13:28:57;13.63;;;7.55;;
28531;SDS011;15738;44.860;10.066;2022-07-29T13:31:44;18.38;;;8.43;;
28531;SDS011;15738;44.860;10.066;2022-07-29T13:34:32;27.88;;;7.35;;
28531;SDS011;15738;44.860;10.066;2022-07-29T13:37:19;14.40;;;7.43;;
28531;SDS011;15738;44.860;10.066;2022-07-29T13:40:06;18.50;;;9.05;;
28531;SDS011;15738;44.860;10.066;2022-07-29T13:42:56;20.65;;;8.43;;
28531;SDS011;15738;44.860;10.066;2022-07-29T13:45:42;17.45;;;8.32;;
28531;SDS011;15738;44.860;10.066;2022-07-29T13:48:29;18.08;;;7.80;;
28531;SDS011;15738;44.860;10.066;2022-07-29T13:51:17;26.33;;;8.77;;
28531;SDS011;15738;44.860;10.066;2022-07-29T13:54:04;26.40;;;9.50;;
28531;SDS011;15738;44.860;10.066;2022-07-29T13:56:53;20.98;;;9.95;;
28531;SDS011;15738;44.860;10.066;2022-07-29T13:59:40;20.58;;;9.80;;
28531;SDS011;15738;44.860;10.066;2022-07-29T14:02:28;30.23;;;11.43;;
28531;SDS011;15738;44.860;10.066;2022-07-29T14:05:14;22.40;;;11.48;;
28531;SDS011;15738;44.860;10.066;2022-07-29T14:08:01;23.33;;;11.43;;
28531;SDS011;15738;44.860;10.066;2022-07-29T14:10:47;27.15;;;11.02;;
28531;SDS011;15738;44.860;10.066;2022-07-29T14:13:35;23.02;;;11.95;;
28531;SDS011;15738;44.860;10.066;2022-07-29T14:16:22;28.38;;;13.15;;
28531;SDS011;15738;44.860;10.066;2022-07-29T14:19:10;26.73;;;11.27;;
28531;SDS011;15738;44.860;10.066;2022-07-29T14:21:57;29.50;;;10.45;;
28531;SDS011;15738;44.860;10.066;2022-07-29T14:24:48;37.65;;;11.35;;
28531;SDS011;15738;44.860;10.066;2022-07-29T14:27:35;26.67;;;9.18;;
28531;SDS011;15738;44.860;10.066;2022-07-29T14:30:22;37.90;;;9.82;;
28531;SDS011;15738;44.860;10.066;2022-07-29T14:33:08;23.80;;;8.85;;
28531;SDS011;15738;44.860;10.066;2022-07-29T14:35:55;20.67;;;6.47;;
28531;SDS011;15738;44.860;10.066;2022-07-29T14:38:45;13.75;;;5.07;;
28531;SDS011;15738;44.860;10.066;2022-07-29T14:41:33;20.85;;;5.82;;
28531;SDS011;15738;44.860;10.066;2022-07-29T14:44:20;14.68;;;5.53;;
28531;SDS011;15738;44.860;10.066;2022-07-29T14:47:09;14.70;;;5.70;;
28531;SDS011;15738;44.860;10.066;2022-07-29T14:49:56;12.30;;;5.43;;
28531;SDS011;15738;44.860;10.066;2022-07-29T14:52:43;15.35;;;5.35;;
28531;SDS011;15738;44.860;10.066;2022-07-29T14:55:31;15.63;;;6.28;;
28531;SDS011;15738;44.860;10.066;2022-07-29T14:58:17;13.02;;;5.50;;
28531;SDS011;15738;44.860;10.066;2022-07-29T15:01:03;14.00;;;5.57;;
28531;SDS011;15738;44.860;10.066;2022-07-29T15:03:49;10.68;;;5.25;;
28531;SDS011;15738;44.860;10.066;2022-07-29T15:06:44;22.70;;;6.80;;
28531;SDS011;15738;44.860;10.066;2022-07-29T15:09:32;17.13;;;6.28;;
28531;SDS011;15738;44.860;10.066;2022-07-29T15:12:24;19.48;;;5.97;;
28531;SDS011;15738;44.860;10.066;2022-07-29T15:15:11;17.65;;;6.10;;
28531;SDS011;15738;44.860;10.066;2022-07-29T15:17:57;16.30;;;6.60;;
28531;SDS011;15738;44.860;10.066;2022-07-29T15:20:43;13.13;;;5.43;;
28531;SDS011;15738;44.860;10.066;2022-07-29T15:23:32;11.40;;;4.95;;
28531;SDS011;15738;44.860;10.066;2022-07-29T15:26:25;13.88;;;4.75;;
28531;SDS011;15738;44.860;10.066;2022-07-29T15:29:12;7.75;;;4.30;;
28531;SDS011;15738;44.860;10.066;2022-07-29T15:31:58;9.77;;;4.50;;
28531;SDS011;15738;44.860;10.066;2022-07-29T15:34:46;15.38;;;4.47;;
28531;SDS011;15738;44.860;10.066;2022-07-29T15:37:33;8.38;;;4.47;;
28531;SDS011;15738;44.860;10.066;2022-07-29T15:40:33;10.60;;;4.32;;
28531;SDS011;15738;44.860;10.066;2022-07-29T15:43:21;17.58;;;5.25;;
28531;SDS011;15738;44.860;10.066;2022-07-29T15:46:12;13.30;;;5.47;;
28531;SDS011;15738;44.860;10.066;2022-07-29T15:49:18;14.00;;;4.53;;
28531;SDS011;15738;44.860;10.066;2022-07-29T15:52:07;13.75;;;5.10;;
28531;SDS011;15738;44.860;10.066;2022-07-29T15:54:56;12.55;;;4.93;;
28531;SDS011;15738;44.860;10.066;2022-07-29T15:57:44;15.02;;;5.00;;
28531;SDS011;15738;44.860;10.066;2022-07-29T16:00:30;8.35;;;4.28;;
28531;SDS011;15738;44.860;10.066;2022-07-29T16:03:17;9.50;;;4.90;;
28531;SDS011;15738;44.860;10.066;2022-07-29T16:06:04;9.75;;;5.05;;
28531;SDS011;15738;44.860;10.066;2022-07-29T16:08:50;11.27;;;4.72;;
28531;SDS011;15738;44.860;10.066;2022-07-29T16:11:36;8.52;;;4.90;;
28531;SDS011;15738;44.860;10.066;2022-07-29T16:14:23;11.88;;;4.85;;
28531;SDS011;15738;44.860;10.066;2022-07-29T16:17:13;12.82;;;5.30;;
28531;SDS011;15738;44.860;10.066;2022-07-29T16:20:00;7.70;;;4.70;;
28531;SDS011;15738;44.860;10.066;2022-07-29T16:22:46;8.95;;;5.30;;
28531;SDS011;15738;44.860;10.066;2022-07-29T16:25:34;8.02;;;5.10;;
28531;SDS011;15738;44.860;10.066;2022-07-29T16:28:42;12.70;;;5.18;;
28531;SDS011;15738;44.860;10.066;2022-07-29T16:31:31;12.82;;;5.43;;
28531;SDS011;15738;44.860;10.066;2022-07-29T16:34:18;13.70;;;5.63;;
28531;SDS011;15738;44.860;10.066;2022-07-29T16:37:05;11.57;;;4.97;;
28531;SDS011;15738;44.860;10.066;2022-07-29T16:39:51;12.88;;;5.40;;
28531;SDS011;15738;44.860;10.066;2022-07-29T16:42:38;13.20;;;5.70;;
28531;SDS011;15738;44.860;10.066;2022-07-29T16:45:31;11.60;;;5.32;;
28531;SDS011;15738;44.860;10.066;2022-07-29T16:48:32;14.10;;;5.93;;
28531;SDS011;15738;44.860;10.066;2022-07-29T16:51:20;14.98;;;6.13;;
28531;SDS011;15738;44.860;10.066;2022-07-29T16:54:09;10.57;;;5.40;;
28531;SDS011;15738;44.860;10.066;2022-07-29T16:56:55;12.45;;;6.40;;
28531;SDS011;15738;44.860;10.066;2022-07-29T16:59:47;16.85;;;6.45;;
28531;SDS011;15738;44.860;10.066;2022-07-29T17:02:35;10.25;;;5.72;;
28531;SDS011;15738;44.860;10.066;2022-07-29T17:05:29;18.65;;;6.75;;
28531;SDS011;15738;44.860;10.066;2022-07-29T17:08:37;11.02;;;6.25;;
28531;SDS011;15738;44.860;10.066;2022-07-29T17:11:25;12.68;;;6.10;;
28531;SDS011;15738;44.860;10.066;2022-07-29T17:14:33;11.93;;;6.00;;
28531;SDS011;15738;44.860;10.066;2022-07-29T17:17:19;17.35;;;7.03;;
28531;SDS011;15738;44.860;10.066;2022-07-29T17:20:23;14.90;;;6.63;;
28531;SDS011;15738;44.860;10.066;2022-07-29T17:23:11;11.23;;;6.97;;
28531;SDS011;15738;44.860;10.066;2022-07-29T17:25:57;16.08;;;6.88;;
28531;SDS011;15738;44.860;10.066;2022-07-29T17:28:45;13.73;;;6.75;;
28531;SDS011;15738;44.860;10.066;2022-07-29T17:31:33;15.20;;;7.80;;